sensor_id;sensor_type;location;lat;lon;timestamp;temperature;humidity
34137;DHT22;20414;50.860;4.382;2022-09-09T00:03:47;24.10;54.20
34137;DHT22;20414;50.860;4.382;2022-09-09T00:06:30;24.10;54.20
34137;DHT22;20414;50.860;4.382;2022-09-09T00:11:47;24.10;54.20
34137;DHT22;20414;50.860;4.382;2022-09-09T00:17:08;24.10;54.20
34137;DHT22;20414;50.860;4.382;2022-09-09T00:19:46;24.10;54.20
34137;DHT22;20414;50.860;4.382;2022-09-09T00:22:18;24.10;54.80
34137;DHT22;20414;50.860;4.382;2022-09-09T00:24:48;24.10;54.10
34137;DHT22;20414;50.860;4.382;2022-09-09T00:29:57;24.10;54.20
34137;DHT22;20414;50.860;4.382;2022-09-09T00:32:28;24.10;54.20
34137;DHT22;20414;50.860;4.382;2022-09-09T00:34:58;24.10;54.20
34137;DHT22;20414;50.860;4.382;2022-09-09T00:37:26;24.10;54.20
34137;DHT22;20414;50.860;4.382;2022-09-09T00:39:54;24.10;54.20
34137;DHT22;20414;50.860;4.382;2022-09-09T00:42:30;24.10;54.20
34137;DHT22;20414;50.860;4.382;2022-09-09T00:45:34;24.10;54.20
34137;DHT22;20414;50.860;4.382;2022-09-09T00:48:06;24.10;54.20
34137;DHT22;20414;50.860;4.382;2022-09-09T00:56:16;24.10;54.20
34137;DHT22;20414;50.860;4.382;2022-09-09T01:01:30;24.10;54.20
34137;DHT22;20414;50.860;4.382;2022-09-09T01:03:57;24.10;54.30
34137;DHT22;20414;50.860;4.382;2022-09-09T01:06:34;24.10;54.20
34137;DHT22;20414;50.860;4.382;2022-09-09T01:12:15;24.10;54.30
34137;DHT22;20414;50.860;4.382;2022-09-09T01:14:49;24.10;54.30
34137;DHT22;20414;50.860;4.382;2022-09-09T01:17:27;24.00;54.20
34137;DHT22;20414;50.860;4.382;2022-09-09T01:20:15;24.10;54.30
34137;DHT22;20414;50.860;4.382;2022-09-09T01:28:28;24.10;54.30
34137;DHT22;20414;50.860;4.382;2022-09-09T01:30:56;24.00;54.20
34137;DHT22;20414;50.860;4.382;2022-09-09T01:33:22;24.00;54.20
34137;DHT22;20414;50.860;4.382;2022-09-09T01:36:03;24.00;54.30
34137;DHT22;20414;50.860;4.382;2022-09-09T01:38:31;24.00;54.30
34137;DHT22;20414;50.860;4.382;2022-09-09T01:40:57;24.00;54.30
34137;DHT22;20414;50.860;4.382;2022-09-09T01:43:24;24.00;54.30
34137;DHT22;20414;50.860;4.382;2022-09-09T01:45:54;24.00;54.30
34137;DHT22;20414;50.860;4.382;2022-09-09T01:48:22;24.00;54.30
34137;DHT22;20414;50.860;4.382;2022-09-09T01:50:48;24.00;54.30
34137;DHT22;20414;50.860;4.382;2022-09-09T01:53:16;24.00;54.30
34137;DHT22;20414;50.860;4.382;2022-09-09T01:59:01;24.00;54.30
34137;DHT22;20414;50.860;4.382;2022-09-09T02:07:19;24.00;54.30
34137;DHT22;20414;50.860;4.382;2022-09-09T02:09:57;24.00;54.30
34137;DHT22;20414;50.860;4.382;2022-09-09T02:12:25;24.00;54.30
34137;DHT22;20414;50.860;4.382;2022-09-09T02:14:56;23.90;54.30
34137;DHT22;20414;50.860;4.382;2022-09-09T02:17:31;24.00;54.30
34137;DHT22;20414;50.860;4.382;2022-09-09T02:20:07;23.90;54.30
34137;DHT22;20414;50.860;4.382;2022-09-09T02:22:35;23.90;54.30
34137;DHT22;20414;50.860;4.382;2022-09-09T02:25:02;23.90;54.30
34137;DHT22;20414;50.860;4.382;2022-09-09T02:27:29;23.90;54.30
34137;DHT22;20414;50.860;4.382;2022-09-09T02:29:56;23.90;54.40
34137;DHT22;20414;50.860;4.382;2022-09-09T02:32:25;23.90;54.30
34137;DHT22;20414;50.860;4.382;2022-09-09T02:35:04;23.90;54.30
34137;DHT22;20414;50.860;4.382;2022-09-09T02:37:37;23.90;54.30
34137;DHT22;20414;50.860;4.382;2022-09-09T02:40:05;23.90;54.40
34137;DHT22;20414;50.860;4.382;2022-09-09T02:42:32;23.90;54.40
34137;DHT22;20414;50.860;4.382;2022-09-09T02:44:58;23.90;54.40
34137;DHT22;20414;50.860;4.382;2022-09-09T02:47:40;23.90;54.40
34137;DHT22;20414;50.860;4.382;2022-09-09T02:50:42;23.90;54.40
34137;DHT22;20414;50.860;4.382;2022-09-09T02:56:20;23.90;54.40
34137;DHT22;20414;50.860;4.382;2022-09-09T02:58:47;23.90;54.40
34137;DHT22;20414;50.860;4.382;2022-09-09T03:01:13;23.90;54.40
34137;DHT22;20414;50.860;4.382;2022-09-09T03:03:39;23.90;54.40
34137;DHT22;20414;50.860;4.382;2022-09-09T03:06:07;23.90;54.40
34137;DHT22;20414;50.860;4.382;2022-09-09T03:08:32;23.90;54.50
34137;DHT22;20414;50.860;4.382;2022-09-09T03:10:59;23.90;54.40
34137;DHT22;20414;50.860;4.382;2022-09-09T03:13:26;23.90;54.40
34137;DHT22;20414;50.860;4.382;2022-09-09T03:15:52;23.90;54.40
34137;DHT22;20414;50.860;4.382;2022-09-09T03:18:18;23.90;54.40
34137;DHT22;20414;50.860;4.382;2022-09-09T03:20:43;23.90;54.40
34137;DHT22;20414;50.860;4.382;2022-09-09T03:23:11;23.80;54.40
34137;DHT22;20414;50.860;4.382;2022-09-09T03:25:39;23.90;54.50
34137;DHT22;20414;50.860;4.382;2022-09-09T03:28:04;23.90;54.40
34137;DHT22;20414;50.860;4.382;2022-09-09T03:30:30;23.80;54.50
34137;DHT22;20414;50.860;4.382;2022-09-09T03:32:56;23.90;54.50
34137;DHT22;20414;50.860;4.382;2022-09-09T03:35:22;23.90;54.50
34137;DHT22;20414;50.860;4.382;2022-09-09T03:37:48;23.90;54.50
34137;DHT22;20414;50.860;4.382;2022-09-09T03:40:14;23.80;54.40
34137;DHT22;20414;50.860;4.382;2022-09-09T03:42:40;23.90;54.50
34137;DHT22;20414;50.860;4.382;2022-09-09T03:45:08;23.80;54.40
34137;DHT22;20414;50.860;4.382;2022-09-09T03:47:34;23.80;54.40
34137;DHT22;20414;50.860;4.382;2022-09-09T03:50:00;23.80;54.50
34137;DHT22;20414;50.860;4.382;2022-09-09T03:52:25;23.80;54.50
34137;DHT22;20414;50.860;4.382;2022-09-09T03:54:52;23.80;54.40
34137;DHT22;20414;50.860;4.382;2022-09-09T03:57:18;23.80;54.50
34137;DHT22;20414;50.860;4.382;2022-09-09T03:59:44;23.80;54.50
34137;DHT22;20414;50.860;4.382;2022-09-09T04:02:09;23.80;54.50
34137;DHT22;20414;50.860;4.382;2022-09-09T04:04:35;23.80;54.50
34137;DHT22;20414;50.860;4.382;2022-09-09T04:07:01;23.80;54.50
34137;DHT22;20414;50.860;4.382;2022-09-09T04:09:27;23.80;54.50
34137;DHT22;20414;50.860;4.382;2022-09-09T04:11:53;23.80;54.50
34137;DHT22;20414;50.860;4.382;2022-09-09T04:14:19;23.80;54.50
34137;DHT22;20414;50.860;4.382;2022-09-09T04:16:45;23.80;54.50
34137;DHT22;20414;50.860;4.382;2022-09-09T04:19:12;23.80;54.50
34137;DHT22;20414;50.860;4.382;2022-09-09T04:21:39;23.80;54.50
34137;DHT22;20414;50.860;4.382;2022-09-09T04:24:08;23.80;54.50
34137;DHT22;20414;50.860;4.382;2022-09-09T04:26:36;23.80;54.60
34137;DHT22;20414;50.860;4.382;2022-09-09T04:29:04;23.80;54.50
34137;DHT22;20414;50.860;4.382;2022-09-09T04:31:31;23.80;54.50
34137;DHT22;20414;50.860;4.382;2022-09-09T04:33:57;23.80;54.50
34137;DHT22;20414;50.860;4.382;2022-09-09T04:36:23;23.80;54.50
34137;DHT22;20414;50.860;4.382;2022-09-09T04:38:48;23.70;54.50
34137;DHT22;20414;50.860;4.382;2022-09-09T04:41:15;23.70;54.50
34137;DHT22;20414;50.860;4.382;2022-09-09T04:43:41;23.70;54.50
34137;DHT22;20414;50.860;4.382;2022-09-09T04:46:08;23.70;54.50
34137;DHT22;20414;50.860;4.382;2022-09-09T04:48:34;23.70;54.60
34137;DHT22;20414;50.860;4.382;2022-09-09T04:51:05;23.70;54.60
34137;DHT22;20414;50.860;4.382;2022-09-09T04:53:31;23.70;54.50
34137;DHT22;20414;50.860;4.382;2022-09-09T04:58:33;23.80;54.60
34137;DHT22;20414;50.860;4.382;2022-09-09T05:01:10;23.70;54.50
34137;DHT22;20414;50.860;4.382;2022-09-09T05:03:36;23.70;55.10
34137;DHT22;20414;50.860;4.382;2022-09-09T05:06:08;23.70;54.50
34137;DHT22;20414;50.860;4.382;2022-09-09T05:08:38;23.70;54.60
34137;DHT22;20414;50.860;4.382;2022-09-09T05:11:12;23.70;54.60
34137;DHT22;20414;50.860;4.382;2022-09-09T05:13:37;23.70;54.60
34137;DHT22;20414;50.860;4.382;2022-09-09T05:16:03;23.70;54.60
34137;DHT22;20414;50.860;4.382;2022-09-09T05:18:29;23.70;54.60
34137;DHT22;20414;50.860;4.382;2022-09-09T05:20:59;23.70;54.60
34137;DHT22;20414;50.860;4.382;2022-09-09T05:23:25;23.70;54.60
34137;DHT22;20414;50.860;4.382;2022-09-09T05:25:58;23.70;54.60
34137;DHT22;20414;50.860;4.382;2022-09-09T05:28:24;23.70;54.70
34137;DHT22;20414;50.860;4.382;2022-09-09T05:31:07;23.70;54.60
34137;DHT22;20414;50.860;4.382;2022-09-09T05:33:35;23.70;54.60
34137;DHT22;20414;50.860;4.382;2022-09-09T05:36:26;23.70;54.70
34137;DHT22;20414;50.860;4.382;2022-09-09T05:38:51;23.70;54.60
34137;DHT22;20414;50.860;4.382;2022-09-09T05:41:19;23.70;54.70
34137;DHT22;20414;50.860;4.382;2022-09-09T05:43:46;23.70;54.70
34137;DHT22;20414;50.860;4.382;2022-09-09T05:46:23;23.70;54.70
34137;DHT22;20414;50.860;4.382;2022-09-09T05:48:50;23.70;54.70
34137;DHT22;20414;50.860;4.382;2022-09-09T05:51:19;23.60;54.60
34137;DHT22;20414;50.860;4.382;2022-09-09T05:53:47;23.70;54.70
34137;DHT22;20414;50.860;4.382;2022-09-09T05:56:18;23.70;54.70
34137;DHT22;20414;50.860;4.382;2022-09-09T05:58:44;23.60;54.70
34137;DHT22;20414;50.860;4.382;2022-09-09T06:01:15;23.60;54.70
34137;DHT22;20414;50.860;4.382;2022-09-09T06:03:42;23.60;54.70
34137;DHT22;20414;50.860;4.382;2022-09-09T06:06:16;23.60;54.70
34137;DHT22;20414;50.860;4.382;2022-09-09T06:08:43;23.60;54.70
34137;DHT22;20414;50.860;4.382;2022-09-09T06:11:45;23.60;54.70
34137;DHT22;20414;50.860;4.382;2022-09-09T06:14:05;23.60;54.70
34137;DHT22;20414;50.860;4.382;2022-09-09T06:16:31;23.60;54.70
34137;DHT22;20414;50.860;4.382;2022-09-09T06:19:00;23.60;54.70
34137;DHT22;20414;50.860;4.382;2022-09-09T06:21:30;23.60;54.70
34137;DHT22;20414;50.860;4.382;2022-09-09T06:23:56;23.60;54.70
34137;DHT22;20414;50.860;4.382;2022-09-09T06:26:30;23.60;54.70
34137;DHT22;20414;50.860;4.382;2022-09-09T06:28:56;23.60;54.70
34137;DHT22;20414;50.860;4.382;2022-09-09T06:31:25;23.60;54.70
34137;DHT22;20414;50.860;4.382;2022-09-09T06:33:53;23.60;54.70
34137;DHT22;20414;50.860;4.382;2022-09-09T06:36:25;23.60;54.70
34137;DHT22;20414;50.860;4.382;2022-09-09T06:38:51;23.60;54.70
34137;DHT22;20414;50.860;4.382;2022-09-09T06:41:18;23.60;54.70
34137;DHT22;20414;50.860;4.382;2022-09-09T06:43:50;23.60;54.70
34137;DHT22;20414;50.860;4.382;2022-09-09T06:46:27;23.60;54.70
34137;DHT22;20414;50.860;4.382;2022-09-09T06:48:54;23.60;54.70
34137;DHT22;20414;50.860;4.382;2022-09-09T06:51:23;23.60;54.70
34137;DHT22;20414;50.860;4.382;2022-09-09T06:53:53;23.60;54.70
34137;DHT22;20414;50.860;4.382;2022-09-09T06:58:58;23.60;54.70
34137;DHT22;20414;50.860;4.382;2022-09-09T07:01:29;23.50;54.70
34137;DHT22;20414;50.860;4.382;2022-09-09T07:03:57;23.60;54.70
34137;DHT22;20414;50.860;4.382;2022-09-09T07:08:52;23.60;54.70
34137;DHT22;20414;50.860;4.382;2022-09-09T07:11:19;23.60;54.70
34137;DHT22;20414;50.860;4.382;2022-09-09T07:13:46;23.60;55.30
34137;DHT22;20414;50.860;4.382;2022-09-09T07:16:14;23.60;54.70
34137;DHT22;20414;50.860;4.382;2022-09-09T07:18:40;23.60;54.70
34137;DHT22;20414;50.860;4.382;2022-09-09T07:21:06;23.60;54.70
34137;DHT22;20414;50.860;4.382;2022-09-09T07:23:34;23.60;54.60
34137;DHT22;20414;50.860;4.382;2022-09-09T07:26:02;23.60;54.60
34137;DHT22;20414;50.860;4.382;2022-09-09T07:28:27;23.60;54.60
34137;DHT22;20414;50.860;4.382;2022-09-09T07:30:59;23.60;54.60
34137;DHT22;20414;50.860;4.382;2022-09-09T07:33:26;23.50;54.60
34137;DHT22;20414;50.860;4.382;2022-09-09T07:35:52;23.60;54.60
34137;DHT22;20414;50.860;4.382;2022-09-09T07:38:19;23.50;54.60
34137;DHT22;20414;50.860;4.382;2022-09-09T07:40:46;23.50;54.60
34137;DHT22;20414;50.860;4.382;2022-09-09T07:43:12;23.60;54.70
34137;DHT22;20414;50.860;4.382;2022-09-09T07:45:38;23.50;54.60
34137;DHT22;20414;50.860;4.382;2022-09-09T07:48:03;23.60;54.70
34137;DHT22;20414;50.860;4.382;2022-09-09T07:50:30;23.50;54.60
34137;DHT22;20414;50.860;4.382;2022-09-09T07:52:55;23.60;54.60
34137;DHT22;20414;50.860;4.382;2022-09-09T07:55:22;23.50;54.60
34137;DHT22;20414;50.860;4.382;2022-09-09T07:57:51;23.60;54.70
34137;DHT22;20414;50.860;4.382;2022-09-09T08:00:17;23.60;54.70
34137;DHT22;20414;50.860;4.382;2022-09-09T08:02:44;23.50;54.70
34137;DHT22;20414;50.860;4.382;2022-09-09T08:05:10;23.50;54.70
34137;DHT22;20414;50.860;4.382;2022-09-09T08:07:35;23.50;54.70
34137;DHT22;20414;50.860;4.382;2022-09-09T08:10:02;23.50;54.70
34137;DHT22;20414;50.860;4.382;2022-09-09T08:12:28;23.50;54.70
34137;DHT22;20414;50.860;4.382;2022-09-09T08:14:54;23.50;54.70
34137;DHT22;20414;50.860;4.382;2022-09-09T08:17:20;23.50;54.70
34137;DHT22;20414;50.860;4.382;2022-09-09T08:19:45;23.50;54.60
34137;DHT22;20414;50.860;4.382;2022-09-09T08:22:11;23.60;54.70
34137;DHT22;20414;50.860;4.382;2022-09-09T08:24:37;23.60;54.60
34137;DHT22;20414;50.860;4.382;2022-09-09T08:27:02;23.50;54.60
34137;DHT22;20414;50.860;4.382;2022-09-09T08:29:28;23.50;54.60
34137;DHT22;20414;50.860;4.382;2022-09-09T08:31:56;23.50;54.60
34137;DHT22;20414;50.860;4.382;2022-09-09T08:34:23;23.50;54.60
34137;DHT22;20414;50.860;4.382;2022-09-09T08:36:51;23.60;54.60
34137;DHT22;20414;50.860;4.382;2022-09-09T08:39:18;23.60;54.60
34137;DHT22;20414;50.860;4.382;2022-09-09T08:50:15;23.60;54.60
34137;DHT22;20414;50.860;4.382;2022-09-09T08:55:50;23.50;54.60
34137;DHT22;20414;50.860;4.382;2022-09-09T08:58:27;23.50;54.60
34137;DHT22;20414;50.860;4.382;2022-09-09T09:03:43;23.60;54.60
34137;DHT22;20414;50.860;4.382;2022-09-09T09:11:43;23.60;54.60
34137;DHT22;20414;50.860;4.382;2022-09-09T09:14:18;23.50;54.60
34137;DHT22;20414;50.860;4.382;2022-09-09T09:17:00;23.60;55.30
34137;DHT22;20414;50.860;4.382;2022-09-09T09:19:28;23.50;54.60
34137;DHT22;20414;50.860;4.382;2022-09-09T09:22:18;23.50;54.70
34137;DHT22;20414;50.860;4.382;2022-09-09T09:24:55;23.50;54.70
34137;DHT22;20414;50.860;4.382;2022-09-09T09:30:14;23.50;54.70
34137;DHT22;20414;50.860;4.382;2022-09-09T09:32:53;23.50;54.70
34137;DHT22;20414;50.860;4.382;2022-09-09T09:35:20;23.50;54.70
34137;DHT22;20414;50.860;4.382;2022-09-09T09:37:46;23.50;54.70
34137;DHT22;20414;50.860;4.382;2022-09-09T09:40:18;23.50;54.80
34137;DHT22;20414;50.860;4.382;2022-09-09T09:42:58;23.50;54.70
34137;DHT22;20414;50.860;4.382;2022-09-09T09:45:42;23.50;54.70
34137;DHT22;20414;50.860;4.382;2022-09-09T09:48:12;23.50;54.70
34137;DHT22;20414;50.860;4.382;2022-09-09T09:50:58;23.50;54.80
34137;DHT22;20414;50.860;4.382;2022-09-09T09:53:27;23.50;54.80
34137;DHT22;20414;50.860;4.382;2022-09-09T09:55:59;23.50;54.80
34137;DHT22;20414;50.860;4.382;2022-09-09T09:58:27;23.50;54.80
34137;DHT22;20414;50.860;4.382;2022-09-09T10:00:56;23.50;54.80
34137;DHT22;20414;50.860;4.382;2022-09-09T10:03:25;23.50;54.80
34137;DHT22;20414;50.860;4.382;2022-09-09T10:05:52;23.50;54.80
34137;DHT22;20414;50.860;4.382;2022-09-09T10:08:18;23.50;54.80
34137;DHT22;20414;50.860;4.382;2022-09-09T10:19:21;23.50;54.80
34137;DHT22;20414;50.860;4.382;2022-09-09T10:27:05;23.50;54.80
34137;DHT22;20414;50.860;4.382;2022-09-09T10:29:54;23.40;54.80
34137;DHT22;20414;50.860;4.382;2022-09-09T10:32:40;23.50;54.90
34137;DHT22;20414;50.860;4.382;2022-09-09T10:43:33;23.50;54.80
34137;DHT22;20414;50.860;4.382;2022-09-09T10:51:39;23.50;54.90
34137;DHT22;20414;50.860;4.382;2022-09-09T10:57:31;23.50;54.80
34137;DHT22;20414;50.860;4.382;2022-09-09T11:00:10;23.50;55.00
34137;DHT22;20414;50.860;4.382;2022-09-09T11:02:40;23.50;54.80
34137;DHT22;20414;50.860;4.382;2022-09-09T11:05:20;23.50;54.80
34137;DHT22;20414;50.860;4.382;2022-09-09T11:07:48;23.50;54.80
34137;DHT22;20414;50.860;4.382;2022-09-09T11:13:30;23.50;54.80
34137;DHT22;20414;50.860;4.382;2022-09-09T11:16:16;23.50;54.80
34137;DHT22;20414;50.860;4.382;2022-09-09T11:18:45;23.50;54.80
34137;DHT22;20414;50.860;4.382;2022-09-09T11:21:47;23.50;55.40
34137;DHT22;20414;50.860;4.382;2022-09-09T11:24:23;23.50;54.80
34137;DHT22;20414;50.860;4.382;2022-09-09T11:27:02;23.50;54.90
34137;DHT22;20414;50.860;4.382;2022-09-09T11:35:33;23.50;54.90
34137;DHT22;20414;50.860;4.382;2022-09-09T11:40:34;23.50;54.90
34137;DHT22;20414;50.860;4.382;2022-09-09T11:43:32;23.50;54.90
34137;DHT22;20414;50.860;4.382;2022-09-09T11:46:01;23.50;54.90
34137;DHT22;20414;50.860;4.382;2022-09-09T11:48:57;23.50;54.90
34137;DHT22;20414;50.860;4.382;2022-09-09T11:51:27;23.50;54.90
34137;DHT22;20414;50.860;4.382;2022-09-09T11:53:56;23.50;54.90
34137;DHT22;20414;50.860;4.382;2022-09-09T11:59:22;23.40;54.90
34137;DHT22;20414;50.860;4.382;2022-09-09T12:02:14;23.40;54.90
34137;DHT22;20414;50.860;4.382;2022-09-09T12:05:07;23.40;54.90
34137;DHT22;20414;50.860;4.382;2022-09-09T12:07:38;23.50;54.90
34137;DHT22;20414;50.860;4.382;2022-09-09T12:10:27;23.50;55.00
34137;DHT22;20414;50.860;4.382;2022-09-09T12:12:54;23.50;54.90
34137;DHT22;20414;50.860;4.382;2022-09-09T12:15:24;23.50;54.90
34137;DHT22;20414;50.860;4.382;2022-09-09T12:17:53;23.50;55.00
34137;DHT22;20414;50.860;4.382;2022-09-09T12:20:36;23.50;55.00
34137;DHT22;20414;50.860;4.382;2022-09-09T12:23:38;23.50;55.00
34137;DHT22;20414;50.860;4.382;2022-09-09T12:31:53;23.50;55.00
34137;DHT22;20414;50.860;4.382;2022-09-09T12:36:57;23.50;55.00
34137;DHT22;20414;50.860;4.382;2022-09-09T12:39:32;23.50;55.00
34137;DHT22;20414;50.860;4.382;2022-09-09T12:41:58;23.50;55.00
34137;DHT22;20414;50.860;4.382;2022-09-09T12:44:25;23.40;55.00
34137;DHT22;20414;50.860;4.382;2022-09-09T12:46:54;23.40;55.00
34137;DHT22;20414;50.860;4.382;2022-09-09T12:49:31;23.40;55.00
34137;DHT22;20414;50.860;4.382;2022-09-09T12:52:02;23.50;55.10
34137;DHT22;20414;50.860;4.382;2022-09-09T12:54:33;23.50;55.00
34137;DHT22;20414;50.860;4.382;2022-09-09T12:56:58;23.50;55.00
34137;DHT22;20414;50.860;4.382;2022-09-09T12:59:36;23.40;55.00
34137;DHT22;20414;50.860;4.382;2022-09-09T13:02:16;23.50;55.00
34137;DHT22;20414;50.860;4.382;2022-09-09T13:04:43;23.40;55.00
34137;DHT22;20414;50.860;4.382;2022-09-09T13:07:11;23.40;54.90
34137;DHT22;20414;50.860;4.382;2022-09-09T13:09:43;23.40;54.90
34137;DHT22;20414;50.860;4.382;2022-09-09T13:12:20;23.50;55.00
34137;DHT22;20414;50.860;4.382;2022-09-09T13:14:50;23.40;55.00
34137;DHT22;20414;50.860;4.382;2022-09-09T13:17:25;23.50;55.00
34137;DHT22;20414;50.860;4.382;2022-09-09T13:19:53;23.40;54.90
34137;DHT22;20414;50.860;4.382;2022-09-09T13:22:36;23.50;55.00
34137;DHT22;20414;50.860;4.382;2022-09-09T13:27:40;23.40;54.90
34137;DHT22;20414;50.860;4.382;2022-09-09T13:30:32;23.40;54.90
34137;DHT22;20414;50.860;4.382;2022-09-09T13:36:05;23.50;55.00
34137;DHT22;20414;50.860;4.382;2022-09-09T13:38:55;23.50;55.00
34137;DHT22;20414;50.860;4.382;2022-09-09T13:41:21;23.50;55.00
34137;DHT22;20414;50.860;4.382;2022-09-09T13:43:49;23.50;55.00
34137;DHT22;20414;50.860;4.382;2022-09-09T13:46:41;23.50;55.00
34137;DHT22;20414;50.860;4.382;2022-09-09T13:51:41;23.50;55.00
34137;DHT22;20414;50.860;4.382;2022-09-09T13:54:11;23.40;55.00
34137;DHT22;20414;50.860;4.382;2022-09-09T13:56:38;23.50;55.00
34137;DHT22;20414;50.860;4.382;2022-09-09T13:59:06;23.50;55.00
34137;DHT22;20414;50.860;4.382;2022-09-09T14:01:34;23.40;55.00
34137;DHT22;20414;50.860;4.382;2022-09-09T14:04:00;23.40;54.90
34137;DHT22;20414;50.860;4.382;2022-09-09T14:06:26;23.50;55.00
34137;DHT22;20414;50.860;4.382;2022-09-09T14:08:53;23.50;54.90
34137;DHT22;20414;50.860;4.382;2022-09-09T14:11:20;23.50;54.90
34137;DHT22;20414;50.860;4.382;2022-09-09T14:13:47;23.50;54.90
34137;DHT22;20414;50.860;4.382;2022-09-09T14:16:16;23.40;54.90
34137;DHT22;20414;50.860;4.382;2022-09-09T14:18:41;23.50;54.90
34137;DHT22;20414;50.860;4.382;2022-09-09T14:21:07;23.50;54.90
34137;DHT22;20414;50.860;4.382;2022-09-09T14:23:34;23.50;54.90
34137;DHT22;20414;50.860;4.382;2022-09-09T14:25:59;23.50;54.90
34137;DHT22;20414;50.860;4.382;2022-09-09T14:28:25;23.50;54.90
34137;DHT22;20414;50.860;4.382;2022-09-09T14:30:51;23.50;54.90
34137;DHT22;20414;50.860;4.382;2022-09-09T14:33:17;23.40;54.80
34137;DHT22;20414;50.860;4.382;2022-09-09T14:35:43;23.50;54.90
34137;DHT22;20414;50.860;4.382;2022-09-09T14:38:09;23.50;54.90
34137;DHT22;20414;50.860;4.382;2022-09-09T14:40:36;23.50;54.90
34137;DHT22;20414;50.860;4.382;2022-09-09T14:43:03;23.50;54.90
34137;DHT22;20414;50.860;4.382;2022-09-09T14:45:28;23.50;54.90
34137;DHT22;20414;50.860;4.382;2022-09-09T14:47:54;23.40;54.90
34137;DHT22;20414;50.860;4.382;2022-09-09T14:50:21;23.50;54.90
34137;DHT22;20414;50.860;4.382;2022-09-09T14:52:48;23.50;54.90
34137;DHT22;20414;50.860;4.382;2022-09-09T14:55:15;23.50;54.90
34137;DHT22;20414;50.860;4.382;2022-09-09T14:57:41;23.50;54.90
34137;DHT22;20414;50.860;4.382;2022-09-09T15:00:08;23.40;54.90
34137;DHT22;20414;50.860;4.382;2022-09-09T15:02:34;23.50;54.90
34137;DHT22;20414;50.860;4.382;2022-09-09T15:04:59;23.50;54.90
34137;DHT22;20414;50.860;4.382;2022-09-09T15:07:26;23.50;54.90
34137;DHT22;20414;50.860;4.382;2022-09-09T15:09:52;23.40;54.80
34137;DHT22;20414;50.860;4.382;2022-09-09T15:12:18;23.50;54.90
34137;DHT22;20414;50.860;4.382;2022-09-09T15:14:45;23.50;54.90
34137;DHT22;20414;50.860;4.382;2022-09-09T15:17:11;23.50;54.90
34137;DHT22;20414;50.860;4.382;2022-09-09T15:19:37;23.50;54.90
34137;DHT22;20414;50.860;4.382;2022-09-09T15:22:04;23.40;54.80
34137;DHT22;20414;50.860;4.382;2022-09-09T15:24:33;23.50;54.90
34137;DHT22;20414;50.860;4.382;2022-09-09T15:27:00;23.50;54.90
34137;DHT22;20414;50.860;4.382;2022-09-09T15:29:26;23.50;54.90
34137;DHT22;20414;50.860;4.382;2022-09-09T15:31:53;23.50;54.90
34137;DHT22;20414;50.860;4.382;2022-09-09T15:34:19;23.50;54.90
34137;DHT22;20414;50.860;4.382;2022-09-09T15:36:45;23.50;54.90
34137;DHT22;20414;50.860;4.382;2022-09-09T15:39:18;23.40;54.80
34137;DHT22;20414;50.860;4.382;2022-09-09T15:41:44;23.40;54.90
34137;DHT22;20414;50.860;4.382;2022-09-09T15:44:11;23.40;54.90
34137;DHT22;20414;50.860;4.382;2022-09-09T15:46:48;23.40;54.90
34137;DHT22;20414;50.860;4.382;2022-09-09T15:51:42;23.50;55.00
34137;DHT22;20414;50.860;4.382;2022-09-09T15:54:10;23.40;54.90
34137;DHT22;20414;50.860;4.382;2022-09-09T15:56:37;23.50;54.90
34137;DHT22;20414;50.860;4.382;2022-09-09T15:59:03;23.40;54.90
34137;DHT22;20414;50.860;4.382;2022-09-09T16:01:31;23.40;54.90
34137;DHT22;20414;50.860;4.382;2022-09-09T16:03:57;23.50;54.90
34137;DHT22;20414;50.860;4.382;2022-09-09T16:06:24;23.40;54.90
34137;DHT22;20414;50.860;4.382;2022-09-09T16:08:52;23.40;54.90
34137;DHT22;20414;50.860;4.382;2022-09-09T16:11:25;23.40;54.90
34137;DHT22;20414;50.860;4.382;2022-09-09T16:13:53;23.40;54.90
34137;DHT22;20414;50.860;4.382;2022-09-09T16:16:21;23.40;54.90
34137;DHT22;20414;50.860;4.382;2022-09-09T16:18:49;23.50;54.90
34137;DHT22;20414;50.860;4.382;2022-09-09T16:21:29;23.50;54.90
34137;DHT22;20414;50.860;4.382;2022-09-09T16:23:58;23.50;54.80
34137;DHT22;20414;50.860;4.382;2022-09-09T16:26:28;23.50;54.80
34137;DHT22;20414;50.860;4.382;2022-09-09T16:28:55;23.50;54.80
34137;DHT22;20414;50.860;4.382;2022-09-09T16:31:23;23.50;54.80
34137;DHT22;20414;50.860;4.382;2022-09-09T16:33:49;23.50;54.80
34137;DHT22;20414;50.860;4.382;2022-09-09T16:36:21;23.50;54.80
34137;DHT22;20414;50.860;4.382;2022-09-09T16:38:48;23.50;54.80
34137;DHT22;20414;50.860;4.382;2022-09-09T16:41:17;23.50;54.80
34137;DHT22;20414;50.860;4.382;2022-09-09T16:43:42;23.50;55.40
34137;DHT22;20414;50.860;4.382;2022-09-09T16:46:16;23.50;54.90
34137;DHT22;20414;50.860;4.382;2022-09-09T16:48:44;23.40;54.80
34137;DHT22;20414;50.860;4.382;2022-09-09T16:51:16;23.40;54.80
34137;DHT22;20414;50.860;4.382;2022-09-09T16:53:42;23.40;54.80
34137;DHT22;20414;50.860;4.382;2022-09-09T16:56:14;23.40;54.80
34137;DHT22;20414;50.860;4.382;2022-09-09T16:58:40;23.40;54.90
34137;DHT22;20414;50.860;4.382;2022-09-09T17:01:08;23.40;54.80
34137;DHT22;20414;50.860;4.382;2022-09-09T17:03:35;23.40;54.80
34137;DHT22;20414;50.860;4.382;2022-09-09T17:06:03;23.40;54.70
34137;DHT22;20414;50.860;4.382;2022-09-09T17:08:31;23.50;54.80
34137;DHT22;20414;50.860;4.382;2022-09-09T17:10:58;23.40;54.70
34137;DHT22;20414;50.860;4.382;2022-09-09T17:13:24;23.40;54.80
34137;DHT22;20414;50.860;4.382;2022-09-09T17:15:50;23.40;54.80
34137;DHT22;20414;50.860;4.382;2022-09-09T17:18:16;23.40;54.80
34137;DHT22;20414;50.860;4.382;2022-09-09T17:20:42;23.40;54.80
34137;DHT22;20414;50.860;4.382;2022-09-09T17:23:10;23.40;54.80
34137;DHT22;20414;50.860;4.382;2022-09-09T17:25:36;23.40;54.80
34137;DHT22;20414;50.860;4.382;2022-09-09T17:28:02;23.40;54.80
34137;DHT22;20414;50.860;4.382;2022-09-09T17:30:33;23.40;54.80
34137;DHT22;20414;50.860;4.382;2022-09-09T17:32:59;23.40;54.80
34137;DHT22;20414;50.860;4.382;2022-09-09T17:35:25;23.40;54.80
34137;DHT22;20414;50.860;4.382;2022-09-09T17:37:53;23.40;54.80
34137;DHT22;20414;50.860;4.382;2022-09-09T17:40:23;23.40;54.80
34137;DHT22;20414;50.860;4.382;2022-09-09T17:42:49;23.40;54.90
34137;DHT22;20414;50.860;4.382;2022-09-09T17:45:15;23.40;55.00
34137;DHT22;20414;50.860;4.382;2022-09-09T17:47:41;23.40;55.40
34137;DHT22;20414;50.860;4.382;2022-09-09T17:50:09;23.40;54.80
34137;DHT22;20414;50.860;4.382;2022-09-09T17:52:38;23.40;54.80
34137;DHT22;20414;50.860;4.382;2022-09-09T17:55:05;23.40;54.80
34137;DHT22;20414;50.860;4.382;2022-09-09T17:57:31;23.40;54.80
34137;DHT22;20414;50.860;4.382;2022-09-09T17:59:56;23.40;54.80
34137;DHT22;20414;50.860;4.382;2022-09-09T18:02:22;23.40;54.80